Neoga, IL

6:37 AM CDT on October 18, 2019 (GMT -0500)
Neoga Township | | Change Station
Active Advisory: Frost Advisory

Elev 682 ft 39.33 °N, 88.41 °W | Updated 4 seconds ago

Clear
Clear
39.9 °F
Feels Like 40 °F
N
0
Wind Variable Wind from ESE
Gusts 2.0 mph

Today
High -- | Low -- °F
--% Chance of Precip.
Yesterday
High -- | Low -- °F
Precip. -- in
Pressure 30.06 in
Visibility 10.0 miles
Clouds Clear
Windchill 40 °F
Dew Point 40 °F
Humidity 99%
Rainfall 0.00 in
Snow Depth Not available.
7:06 AM 6:10 PM
Waning Gibbous, 80% visible
METAR KMTO 181053Z AUTO 13003KT 10SM CLR 03/02 A3005 RMK AO2 SLP178 T00280017
Pressure 30.06 in
Visibility 10.0 miles
Clouds Clear
Windchill 40 °F
Dew Point 40 °F
Humidity 99%
Rainfall 0.00 in
Snow Depth Not available.
7:06 AM 6:10 PM
Waning Gibbous, 80% visible
METAR KMTO 181053Z AUTO 13003KT 10SM CLR 03/02 A3005 RMK AO2 SLP178 T00280017

Get Your Daily Forecast Email!

Thanks for signing up!

Be on the lookout for a verification email in your inbox.

You'll start receiving severe weather alerts in your inbox..

×

10-Day Weather Forecast

Almanac

Astronomy

Oct. 18, 2019 Rise Set
Actual Time
Civil Twilight
Nautical Twilight
Astronomical Twilight
Moon
Length of Visible Light
Length of Day
Tomorrow will be .
, % of the Moon is Illuminated

Today's Extremes

State Highs State Lows

Community

WunderPhotos

Category 6

Welcome to Category 6. This is the collective home for Weather Underground's featured writeups by Dr. Jeff Masters (right), Bob Henson (left), Chris Burt, and other regular contributors.

Nearby

Air Quality

  Air Quality AQ Index Pollutant
Not available.

Snow Depth

Station Depth Elevation

Earthquake Activity

City Distance Mag. Time & Date
Minimum magnitude displayed is 2.5.

Coastal Water Temperatures

Place Temperature

Stations

Nearby Weather Stations

Station Location Temp. Windchill Dew Point Humidity Wind Precip. Elev Updated Type
                   

Watches & Warnings

Frost Advisory
Issued: 4:31 AM CDT Oct. 18, 2019 – National Weather Service

... Frost advisory remains in effect until 8 am CDT this morning...

* what... light to calm winds combined with temperatures in the low
to mid 30s early this morning, will result in widespread frost
formation.

* Where... areas east of I-55.

* When... through 8 am CDT today.

* Impacts... frost could kill sensitive outdoor vegetation if
left outdoors uncovered.

Precautionary/preparedness actions...

Keep plants covered with cloth or kept inside until mid morning.



07